Vela Gallego Dos — EA3200 — position and weather

sailwx.info

Track history (hours):
 
Tides and Currents Weather Stations Pressure Air Temp Water Temp Dewpoint Dewpoint Depression Visibility Wind Speed Wind Dir Waves Ship Positions

Vela Gallego Dos

Last reported at 2018-Jan-18 06:00 UTC. Time now 2018-Jan-20 11:11 UTC.
Position N 37°32' W 000°56'.

Length 24 m; draft 3 m.

Type: Fishing. MMSI: 224027970.

Date/timePositionNaut miles runAvg speedWind from/ knotsBaromVisibWave heightAir tempDewpointWater temp
2018-Jan-18 06:00N 37°32' W 000°56'3 2.8
2018-Jan-18 04:54N 37°32' W 000°52'1 1.9
2018-Jan-18 04:29N 37°32' W 000°53'  
2018-Jan-08 16:41N 37°33' W 000°51'210.3
2018-Jan-08 16:30N 37°34' W 000°48'810.0
2018-Jan-08 15:39N 37°35' W 000°38'1 9.9
2018-Jan-08 15:30N 37°35' W 000°36'6 9.8
2018-Jan-08 14:54N 37°36' W 000°29'4 0.6
2018-Jan-08 07:50N 37°38' W 000°24'1 2.9
2018-Jan-08 07:27N 37°37' W 000°25'1 2.9
2018-Jan-08 07:00N 37°37' W 000°27'2 3.7
2018-Jan-08 06:29N 37°36' W 000°29'510.6
2018-Jan-08 06:00N 37°35' W 000°35'  
Track history (hours):
 
Tides and Currents Weather Stations Pressure Air Temp Water Temp Dewpoint Dewpoint Depression Visibility Wind Speed Wind Dir Waves Ship Positions

Vela Gallego Dos

Last reported at 2018-Jan-18 06:00 UTC. Time now 2018-Jan-20 11:11 UTC.
Position N 37°32' W 000°56'.

Length 24 m; draft 3 m.

Type: Fishing. MMSI: 224027970.

Date/timePositionNaut miles runAvg speedWind from/ knotsBaromVisibWave heightAir tempDewpointWater temp
2018-Jan-18 06:00N 37°32' W 000°56'3 2.8
2018-Jan-18 04:54N 37°32' W 000°52'1 1.9
2018-Jan-18 04:29N 37°32' W 000°53'  
2018-Jan-08 16:41N 37°33' W 000°51'210.3
2018-Jan-08 16:30N 37°34' W 000°48'810.0
2018-Jan-08 15:39N 37°35' W 000°38'1 9.9
2018-Jan-08 15:30N 37°35' W 000°36'6 9.8
2018-Jan-08 14:54N 37°36' W 000°29'4 0.6
2018-Jan-08 07:50N 37°38' W 000°24'1 2.9
2018-Jan-08 07:27N 37°37' W 000°25'1 2.9
2018-Jan-08 07:00N 37°37' W 000°27'2 3.7
2018-Jan-08 06:29N 37°36' W 000°29'510.6
2018-Jan-08 06:00N 37°35' W 000°35'  

Dump ship's entire track history